sensor_id;sensor_type;location;lat;lon;timestamp;P1;durP1;ratioP1;P2;durP2;ratioP2
4819;SDS011;2424;49.696;6.630;2023-09-08T00:03:58;7.67;;;2.80;;
4819;SDS011;2424;49.696;6.630;2023-09-08T00:09:20;4.03;;;3.30;;
4819;SDS011;2424;49.696;6.630;2023-09-08T00:14:42;2.90;;;2.70;;
4819;SDS011;2424;49.696;6.630;2023-09-08T00:20:07;3.80;;;3.50;;
4819;SDS011;2424;49.696;6.630;2023-09-08T00:25:29;2.87;;;2.70;;
4819;SDS011;2424;49.696;6.630;2023-09-08T00:30:51;2.90;;;2.70;;
4819;SDS011;2424;49.696;6.630;2023-09-08T00:36:15;3.50;;;3.20;;
4819;SDS011;2424;49.696;6.630;2023-09-08T00:41:38;2.90;;;2.70;;
4819;SDS011;2424;49.696;6.630;2023-09-08T00:47:00;2.63;;;2.53;;
4819;SDS011;2424;49.696;6.630;2023-09-08T00:52:23;3.40;;;3.10;;
4819;SDS011;2424;49.696;6.630;2023-09-08T00:57:51;4.30;;;3.20;;
4819;SDS011;2424;49.696;6.630;2023-09-08T01:03:13;3.00;;;2.90;;
4819;SDS011;2424;49.696;6.630;2023-09-08T01:08:36;3.30;;;3.00;;
4819;SDS011;2424;49.696;6.630;2023-09-08T01:13:58;3.30;;;3.03;;
4819;SDS011;2424;49.696;6.630;2023-09-08T01:19:20;3.20;;;2.93;;
4819;SDS011;2424;49.696;6.630;2023-09-08T01:24:55;3.27;;;3.00;;
4819;SDS011;2424;49.696;6.630;2023-09-08T01:30:42;2.60;;;2.50;;
4819;SDS011;2424;49.696;6.630;2023-09-08T01:36:04;3.07;;;2.87;;
4819;SDS011;2424;49.696;6.630;2023-09-08T01:41:28;3.80;;;2.93;;
4819;SDS011;2424;49.696;6.630;2023-09-08T01:46:50;2.83;;;2.63;;
4819;SDS011;2424;49.696;6.630;2023-09-08T01:52:16;2.83;;;2.63;;
4819;SDS011;2424;49.696;6.630;2023-09-08T01:57:40;3.60;;;3.10;;
4819;SDS011;2424;49.696;6.630;2023-09-08T02:03:02;3.53;;;3.23;;
4819;SDS011;2424;49.696;6.630;2023-09-08T02:08:24;5.03;;;2.67;;
4819;SDS011;2424;49.696;6.630;2023-09-08T02:13:47;2.87;;;2.67;;
4819;SDS011;2424;49.696;6.630;2023-09-08T02:19:09;2.77;;;2.60;;
4819;SDS011;2424;49.696;6.630;2023-09-08T02:24:31;3.27;;;2.60;;
4819;SDS011;2424;49.696;6.630;2023-09-08T02:29:55;2.87;;;2.67;;
4819;SDS011;2424;49.696;6.630;2023-09-08T02:35:17;3.33;;;3.03;;
4819;SDS011;2424;49.696;6.630;2023-09-08T02:40:39;2.50;;;2.40;;
4819;SDS011;2424;49.696;6.630;2023-09-08T02:46:02;3.10;;;2.90;;
4819;SDS011;2424;49.696;6.630;2023-09-08T02:51:24;3.30;;;3.10;;
4819;SDS011;2424;49.696;6.630;2023-09-08T02:56:46;2.53;;;2.37;;
4819;SDS011;2424;49.696;6.630;2023-09-08T03:02:09;2.97;;;2.77;;
4819;SDS011;2424;49.696;6.630;2023-09-08T03:07:31;3.27;;;3.07;;
4819;SDS011;2424;49.696;6.630;2023-09-08T03:12:57;2.83;;;2.63;;
4819;SDS011;2424;49.696;6.630;2023-09-08T03:18:20;2.77;;;2.57;;
4819;SDS011;2424;49.696;6.630;2023-09-08T03:23:43;5.60;;;2.80;;
4819;SDS011;2424;49.696;6.630;2023-09-08T03:29:08;2.93;;;2.70;;
4819;SDS011;2424;49.696;6.630;2023-09-08T03:34:31;2.37;;;2.23;;
4819;SDS011;2424;49.696;6.630;2023-09-08T03:39:53;2.87;;;2.67;;
4819;SDS011;2424;49.696;6.630;2023-09-08T03:45:15;3.10;;;2.90;;
4819;SDS011;2424;49.696;6.630;2023-09-08T03:50:38;3.20;;;2.90;;
4819;SDS011;2424;49.696;6.630;2023-09-08T03:56:00;3.60;;;3.30;;
4819;SDS011;2424;49.696;6.630;2023-09-08T04:01:22;3.20;;;2.97;;
4819;SDS011;2424;49.696;6.630;2023-09-08T04:06:46;3.10;;;2.50;;
4819;SDS011;2424;49.696;6.630;2023-09-08T04:12:08;6.20;;;2.70;;
4819;SDS011;2424;49.696;6.630;2023-09-08T04:17:31;3.00;;;2.80;;
4819;SDS011;2424;49.696;6.630;2023-09-08T04:22:55;2.90;;;2.60;;
4819;SDS011;2424;49.696;6.630;2023-09-08T04:28:17;2.87;;;2.67;;
4819;SDS011;2424;49.696;6.630;2023-09-08T04:33:39;2.90;;;2.70;;
4819;SDS011;2424;49.696;6.630;2023-09-08T04:39:02;2.80;;;2.60;;
4819;SDS011;2424;49.696;6.630;2023-09-08T04:44:24;4.40;;;3.27;;
4819;SDS011;2424;49.696;6.630;2023-09-08T04:49:46;2.90;;;2.70;;
4819;SDS011;2424;49.696;6.630;2023-09-08T04:55:10;2.63;;;2.43;;
4819;SDS011;2424;49.696;6.630;2023-09-08T05:00:32;3.00;;;2.80;;
4819;SDS011;2424;49.696;6.630;2023-09-08T05:05:54;3.57;;;3.27;;
4819;SDS011;2424;49.696;6.630;2023-09-08T05:11:17;3.23;;;2.93;;
4819;SDS011;2424;49.696;6.630;2023-09-08T05:16:39;3.07;;;2.87;;
4819;SDS011;2424;49.696;6.630;2023-09-08T05:22:06;3.33;;;3.13;;
4819;SDS011;2424;49.696;6.630;2023-09-08T05:27:29;3.13;;;2.77;;
4819;SDS011;2424;49.696;6.630;2023-09-08T05:32:52;3.57;;;3.37;;
4819;SDS011;2424;49.696;6.630;2023-09-08T05:38:13;2.97;;;2.77;;
4819;SDS011;2424;49.696;6.630;2023-09-08T05:43:37;3.00;;;2.70;;
4819;SDS011;2424;49.696;6.630;2023-09-08T05:49:00;3.20;;;2.90;;
4819;SDS011;2424;49.696;6.630;2023-09-08T05:54:22;5.63;;;3.03;;
4819;SDS011;2424;49.696;6.630;2023-09-08T05:59:46;3.10;;;2.90;;
4819;SDS011;2424;49.696;6.630;2023-09-08T06:05:08;2.70;;;2.50;;
4819;SDS011;2424;49.696;6.630;2023-09-08T06:10:30;3.00;;;2.80;;
4819;SDS011;2424;49.696;6.630;2023-09-08T06:15:53;3.70;;;3.30;;
4819;SDS011;2424;49.696;6.630;2023-09-08T06:21:15;8.20;;;3.30;;
4819;SDS011;2424;49.696;6.630;2023-09-08T06:26:37;3.67;;;3.40;;
4819;SDS011;2424;49.696;6.630;2023-09-08T06:32:01;3.93;;;3.63;;
4819;SDS011;2424;49.696;6.630;2023-09-08T06:37:23;6.67;;;3.90;;
4819;SDS011;2424;49.696;6.630;2023-09-08T06:42:45;6.73;;;4.37;;
4819;SDS011;2424;49.696;6.630;2023-09-08T06:48:09;6.00;;;4.77;;
4819;SDS011;2424;49.696;6.630;2023-09-08T06:53:31;4.03;;;3.63;;
4819;SDS011;2424;49.696;6.630;2023-09-08T06:58:53;4.20;;;3.80;;
4819;SDS011;2424;49.696;6.630;2023-09-08T07:04:16;4.43;;;4.03;;
4819;SDS011;2424;49.696;6.630;2023-09-08T07:09:38;4.27;;;3.87;;
4819;SDS011;2424;49.696;6.630;2023-09-08T07:15:00;3.73;;;3.43;;
4819;SDS011;2424;49.696;6.630;2023-09-08T07:20:24;4.33;;;4.03;;
4819;SDS011;2424;49.696;6.630;2023-09-08T07:25:46;6.60;;;4.53;;
4819;SDS011;2424;49.696;6.630;2023-09-08T07:31:08;5.57;;;4.27;;
4819;SDS011;2424;49.696;6.630;2023-09-08T07:36:32;5.90;;;5.00;;
4819;SDS011;2424;49.696;6.630;2023-09-08T07:41:55;3.93;;;3.60;;
4819;SDS011;2424;49.696;6.630;2023-09-08T07:47:17;3.70;;;3.40;;
4819;SDS011;2424;49.696;6.630;2023-09-08T07:52:40;5.17;;;4.20;;
4819;SDS011;2424;49.696;6.630;2023-09-08T07:58:02;4.50;;;4.10;;
4819;SDS011;2424;49.696;6.630;2023-09-08T08:03:25;8.20;;;4.60;;
4819;SDS011;2424;49.696;6.630;2023-09-08T08:08:48;5.37;;;3.83;;
4819;SDS011;2424;49.696;6.630;2023-09-08T08:14:10;4.57;;;3.93;;
4819;SDS011;2424;49.696;6.630;2023-09-08T08:19:32;4.87;;;4.30;;
4819;SDS011;2424;49.696;6.630;2023-09-08T08:24:55;5.97;;;4.03;;
4819;SDS011;2424;49.696;6.630;2023-09-08T08:30:17;5.40;;;4.63;;
4819;SDS011;2424;49.696;6.630;2023-09-08T08:35:39;3.60;;;3.30;;
4819;SDS011;2424;49.696;6.630;2023-09-08T08:41:03;4.30;;;3.90;;
4819;SDS011;2424;49.696;6.630;2023-09-08T08:46:26;5.17;;;4.67;;
4819;SDS011;2424;49.696;6.630;2023-09-08T08:51:48;4.67;;;4.27;;
4819;SDS011;2424;49.696;6.630;2023-09-08T08:57:14;6.20;;;4.40;;
4819;SDS011;2424;49.696;6.630;2023-09-08T09:02:37;4.17;;;3.77;;
4819;SDS011;2424;49.696;6.630;2023-09-08T09:08:01;3.70;;;3.43;;
4819;SDS011;2424;49.696;6.630;2023-09-08T09:13:25;9.17;;;4.53;;
4819;SDS011;2424;49.696;6.630;2023-09-08T09:18:54;4.40;;;4.03;;
4819;SDS011;2424;49.696;6.630;2023-09-08T09:24:17;4.37;;;3.87;;
4819;SDS011;2424;49.696;6.630;2023-09-08T09:29:50;9.33;;;4.93;;
4819;SDS011;2424;49.696;6.630;2023-09-08T09:35:12;4.67;;;3.83;;
4819;SDS011;2424;49.696;6.630;2023-09-08T09:40:34;4.30;;;4.00;;
4819;SDS011;2424;49.696;6.630;2023-09-08T09:45:58;4.23;;;3.93;;
4819;SDS011;2424;49.696;6.630;2023-09-08T09:51:20;4.70;;;4.00;;
4819;SDS011;2424;49.696;6.630;2023-09-08T09:56:43;4.37;;;3.83;;
4819;SDS011;2424;49.696;6.630;2023-09-08T10:02:08;4.27;;;3.87;;
4819;SDS011;2424;49.696;6.630;2023-09-08T10:07:34;5.17;;;4.73;;
4819;SDS011;2424;49.696;6.630;2023-09-08T10:12:57;5.17;;;4.23;;
4819;SDS011;2424;49.696;6.630;2023-09-08T10:18:24;4.23;;;3.93;;
4819;SDS011;2424;49.696;6.630;2023-09-08T10:23:49;4.87;;;4.47;;
4819;SDS011;2424;49.696;6.630;2023-09-08T10:29:16;5.23;;;4.70;;
4819;SDS011;2424;49.696;6.630;2023-09-08T10:34:41;4.43;;;4.00;;
4819;SDS011;2424;49.696;6.630;2023-09-08T10:40:23;5.57;;;4.20;;
4819;SDS011;2424;49.696;6.630;2023-09-08T10:45:47;5.33;;;4.83;;
4819;SDS011;2424;49.696;6.630;2023-09-08T10:51:13;5.40;;;3.80;;
4819;SDS011;2424;49.696;6.630;2023-09-08T10:56:49;4.67;;;4.20;;
4819;SDS011;2424;49.696;6.630;2023-09-08T11:07:55;7.63;;;4.10;;
4819;SDS011;2424;49.696;6.630;2023-09-08T11:13:17;5.87;;;4.57;;
4819;SDS011;2424;49.696;6.630;2023-09-08T11:18:39;4.87;;;4.37;;
4819;SDS011;2424;49.696;6.630;2023-09-08T11:24:04;6.13;;;3.90;;
4819;SDS011;2424;49.696;6.630;2023-09-08T11:29:26;3.93;;;3.60;;
4819;SDS011;2424;49.696;6.630;2023-09-08T11:34:48;4.60;;;4.20;;
4819;SDS011;2424;49.696;6.630;2023-09-08T11:40:12;5.30;;;4.13;;
4819;SDS011;2424;49.696;6.630;2023-09-08T11:45:34;4.50;;;4.10;;
4819;SDS011;2424;49.696;6.630;2023-09-08T11:50:57;4.07;;;3.70;;
4819;SDS011;2424;49.696;6.630;2023-09-08T11:56:20;4.80;;;4.20;;
4819;SDS011;2424;49.696;6.630;2023-09-08T12:01:43;4.53;;;4.13;;
4819;SDS011;2424;49.696;6.630;2023-09-08T12:07:05;3.80;;;3.50;;
4819;SDS011;2424;49.696;6.630;2023-09-08T12:12:28;8.33;;;3.87;;
4819;SDS011;2424;49.696;6.630;2023-09-08T12:17:50;4.53;;;4.13;;
4819;SDS011;2424;49.696;6.630;2023-09-08T12:23:19;3.83;;;3.53;;
4819;SDS011;2424;49.696;6.630;2023-09-08T12:28:44;3.80;;;3.50;;
4819;SDS011;2424;49.696;6.630;2023-09-08T12:34:07;3.93;;;3.60;;
4819;SDS011;2424;49.696;6.630;2023-09-08T12:39:29;4.17;;;3.87;;
4819;SDS011;2424;49.696;6.630;2023-09-08T12:44:52;5.57;;;5.07;;
4819;SDS011;2424;49.696;6.630;2023-09-08T12:50:14;5.30;;;3.60;;
4819;SDS011;2424;49.696;6.630;2023-09-08T12:55:36;5.17;;;4.67;;
4819;SDS011;2424;49.696;6.630;2023-09-08T13:01:00;3.93;;;3.50;;
4819;SDS011;2424;49.696;6.630;2023-09-08T13:06:21;3.87;;;3.67;;
4819;SDS011;2424;49.696;6.630;2023-09-08T13:11:43;4.40;;;4.00;;
4819;SDS011;2424;49.696;6.630;2023-09-08T13:17:07;3.30;;;3.10;;
4819;SDS011;2424;49.696;6.630;2023-09-08T13:22:29;4.17;;;3.13;;
4819;SDS011;2424;49.696;6.630;2023-09-08T13:27:51;3.90;;;3.60;;
4819;SDS011;2424;49.696;6.630;2023-09-08T13:33:15;5.90;;;4.00;;
4819;SDS011;2424;49.696;6.630;2023-09-08T13:38:36;3.87;;;3.67;;
4819;SDS011;2424;49.696;6.630;2023-09-08T13:43:58;4.60;;;4.30;;
4819;SDS011;2424;49.696;6.630;2023-09-08T13:49:22;4.27;;;3.80;;
4819;SDS011;2424;49.696;6.630;2023-09-08T13:54:44;3.10;;;2.80;;
4819;SDS011;2424;49.696;6.630;2023-09-08T14:00:06;3.73;;;3.37;;
4819;SDS011;2424;49.696;6.630;2023-09-08T14:05:31;3.73;;;3.43;;
4819;SDS011;2424;49.696;6.630;2023-09-08T14:10:53;3.80;;;3.50;;
4819;SDS011;2424;49.696;6.630;2023-09-08T14:16:17;3.63;;;3.33;;
4819;SDS011;2424;49.696;6.630;2023-09-08T14:21:43;3.30;;;3.10;;
4819;SDS011;2424;49.696;6.630;2023-09-08T14:27:05;3.03;;;2.83;;
4819;SDS011;2424;49.696;6.630;2023-09-08T14:32:27;10.73;;;2.57;;
4819;SDS011;2424;49.696;6.630;2023-09-08T14:37:51;2.67;;;2.47;;
4819;SDS011;2424;49.696;6.630;2023-09-08T14:43:13;4.30;;;3.30;;
4819;SDS011;2424;49.696;6.630;2023-09-08T14:48:35;2.07;;;1.97;;
4819;SDS011;2424;49.696;6.630;2023-09-08T14:53:58;2.20;;;2.10;;
4819;SDS011;2424;49.696;6.630;2023-09-08T14:59:20;1.93;;;1.83;;
4819;SDS011;2424;49.696;6.630;2023-09-08T15:04:42;1.90;;;1.70;;
4819;SDS011;2424;49.696;6.630;2023-09-08T15:10:06;2.27;;;2.17;;
4819;SDS011;2424;49.696;6.630;2023-09-08T15:15:28;1.97;;;1.87;;
4819;SDS011;2424;49.696;6.630;2023-09-08T15:20:50;2.27;;;2.17;;
4819;SDS011;2424;49.696;6.630;2023-09-08T15:26:14;1.83;;;1.73;;
4819;SDS011;2424;49.696;6.630;2023-09-08T15:31:36;2.30;;;1.87;;
4819;SDS011;2424;49.696;6.630;2023-09-08T15:36:58;1.90;;;1.80;;
4819;SDS011;2424;49.696;6.630;2023-09-08T15:42:21;1.77;;;1.67;;
4819;SDS011;2424;49.696;6.630;2023-09-08T15:47:43;2.33;;;2.13;;
4819;SDS011;2424;49.696;6.630;2023-09-08T15:53:05;2.40;;;2.30;;
4819;SDS011;2424;49.696;6.630;2023-09-08T15:58:29;2.17;;;2.07;;
4819;SDS011;2424;49.696;6.630;2023-09-08T16:03:51;2.13;;;2.03;;
4819;SDS011;2424;49.696;6.630;2023-09-08T16:09:13;2.30;;;2.20;;
4819;SDS011;2424;49.696;6.630;2023-09-08T16:14:36;2.30;;;2.10;;
4819;SDS011;2424;49.696;6.630;2023-09-08T16:19:58;2.43;;;2.23;;
4819;SDS011;2424;49.696;6.630;2023-09-08T16:25:20;3.53;;;2.50;;
4819;SDS011;2424;49.696;6.630;2023-09-08T16:30:44;3.03;;;2.83;;
4819;SDS011;2424;49.696;6.630;2023-09-08T16:36:06;1.90;;;1.80;;
4819;SDS011;2424;49.696;6.630;2023-09-08T16:41:28;2.43;;;2.33;;
4819;SDS011;2424;49.696;6.630;2023-09-08T16:46:52;2.43;;;2.23;;
4819;SDS011;2424;49.696;6.630;2023-09-08T16:52:14;2.80;;;2.63;;
4819;SDS011;2424;49.696;6.630;2023-09-08T16:57:35;3.80;;;2.80;;
4819;SDS011;2424;49.696;6.630;2023-09-08T17:02:59;2.67;;;2.47;;
4819;SDS011;2424;49.696;6.630;2023-09-08T17:08:22;2.70;;;2.60;;
4819;SDS011;2424;49.696;6.630;2023-09-08T17:13:44;6.00;;;2.77;;
4819;SDS011;2424;49.696;6.630;2023-09-08T17:19:07;2.50;;;2.30;;
4819;SDS011;2424;49.696;6.630;2023-09-08T17:24:30;5.07;;;2.83;;
4819;SDS011;2424;49.696;6.630;2023-09-08T17:29:52;2.70;;;2.33;;
4819;SDS011;2424;49.696;6.630;2023-09-08T17:35:15;2.80;;;2.60;;
4819;SDS011;2424;49.696;6.630;2023-09-08T17:40:37;2.97;;;2.77;;
4819;SDS011;2424;49.696;6.630;2023-09-08T17:45:59;2.70;;;2.40;;
4819;SDS011;2424;49.696;6.630;2023-09-08T17:51:23;2.40;;;2.30;;
4819;SDS011;2424;49.696;6.630;2023-09-08T17:56:45;2.83;;;2.53;;
4819;SDS011;2424;49.696;6.630;2023-09-08T18:02:07;2.47;;;2.37;;
4819;SDS011;2424;49.696;6.630;2023-09-08T18:07:31;2.80;;;2.60;;
4819;SDS011;2424;49.696;6.630;2023-09-08T18:12:53;3.40;;;3.03;;
4819;SDS011;2424;49.696;6.630;2023-09-08T18:18:15;4.93;;;3.53;;
4819;SDS011;2424;49.696;6.630;2023-09-08T18:23:39;3.30;;;3.00;;
4819;SDS011;2424;49.696;6.630;2023-09-08T18:29:01;3.60;;;3.30;;
4819;SDS011;2424;49.696;6.630;2023-09-08T18:34:23;5.87;;;4.40;;
4819;SDS011;2424;49.696;6.630;2023-09-08T18:39:46;4.07;;;2.97;;
4819;SDS011;2424;49.696;6.630;2023-09-08T18:45:08;3.03;;;2.83;;
4819;SDS011;2424;49.696;6.630;2023-09-08T18:50:30;3.20;;;3.00;;
4819;SDS011;2424;49.696;6.630;2023-09-08T18:55:53;4.00;;;3.53;;
4819;SDS011;2424;49.696;6.630;2023-09-08T19:01:16;9.27;;;3.00;;
4819;SDS011;2424;49.696;6.630;2023-09-08T19:06:38;3.70;;;2.90;;
4819;SDS011;2424;49.696;6.630;2023-09-08T19:12:01;3.27;;;3.03;;
4819;SDS011;2424;49.696;6.630;2023-09-08T19:17:24;5.17;;;3.00;;
4819;SDS011;2424;49.696;6.630;2023-09-08T19:22:46;4.33;;;2.70;;
4819;SDS011;2424;49.696;6.630;2023-09-08T19:28:09;3.00;;;2.80;;
4819;SDS011;2424;49.696;6.630;2023-09-08T19:33:32;3.80;;;3.10;;
4819;SDS011;2424;49.696;6.630;2023-09-08T19:38:55;4.10;;;2.87;;
4819;SDS011;2424;49.696;6.630;2023-09-08T19:44:19;3.63;;;3.40;;
4819;SDS011;2424;49.696;6.630;2023-09-08T19:49:41;4.10;;;3.20;;
4819;SDS011;2424;49.696;6.630;2023-09-08T19:55:03;4.50;;;2.80;;
4819;SDS011;2424;49.696;6.630;2023-09-08T20:00:29;3.73;;;3.43;;
4819;SDS011;2424;49.696;6.630;2023-09-08T20:05:51;3.67;;;3.47;;
4819;SDS011;2424;49.696;6.630;2023-09-08T20:11:14;3.40;;;3.20;;
4819;SDS011;2424;49.696;6.630;2023-09-08T20:16:37;2.80;;;2.60;;
4819;SDS011;2424;49.696;6.630;2023-09-08T20:22:00;3.70;;;3.30;;
4819;SDS011;2424;49.696;6.630;2023-09-08T20:27:22;3.50;;;3.20;;
4819;SDS011;2424;49.696;6.630;2023-09-08T20:32:45;3.13;;;2.93;;
4819;SDS011;2424;49.696;6.630;2023-09-08T20:38:07;5.43;;;4.13;;
4819;SDS011;2424;49.696;6.630;2023-09-08T20:43:32;3.23;;;3.00;;
4819;SDS011;2424;49.696;6.630;2023-09-08T20:48:56;4.17;;;3.30;;
4819;SDS011;2424;49.696;6.630;2023-09-08T20:54:18;3.00;;;2.80;;
4819;SDS011;2424;49.696;6.630;2023-09-08T20:59:40;3.40;;;3.13;;
4819;SDS011;2424;49.696;6.630;2023-09-08T21:05:03;3.23;;;3.03;;
4819;SDS011;2424;49.696;6.630;2023-09-08T21:10:26;3.17;;;2.97;;
4819;SDS011;2424;49.696;6.630;2023-09-08T21:15:48;4.43;;;2.80;;
4819;SDS011;2424;49.696;6.630;2023-09-08T21:21:12;3.60;;;3.30;;
4819;SDS011;2424;49.696;6.630;2023-09-08T21:26:34;3.87;;;3.57;;
4819;SDS011;2424;49.696;6.630;2023-09-08T21:31:56;3.37;;;3.17;;
4819;SDS011;2424;49.696;6.630;2023-09-08T21:37:20;3.03;;;2.90;;
4819;SDS011;2424;49.696;6.630;2023-09-08T21:42:42;3.60;;;2.90;;
4819;SDS011;2424;49.696;6.630;2023-09-08T21:48:04;3.77;;;3.37;;
4819;SDS011;2424;49.696;6.630;2023-09-08T21:53:27;3.97;;;3.67;;
4819;SDS011;2424;49.696;6.630;2023-09-08T21:58:49;3.47;;;3.20;;
4819;SDS011;2424;49.696;6.630;2023-09-08T22:04:12;3.33;;;3.10;;
4819;SDS011;2424;49.696;6.630;2023-09-08T22:09:35;3.73;;;3.37;;
4819;SDS011;2424;49.696;6.630;2023-09-08T22:14:57;3.60;;;3.30;;
4819;SDS011;2424;49.696;6.630;2023-09-08T22:20:19;3.33;;;3.13;;
4819;SDS011;2424;49.696;6.630;2023-09-08T22:25:43;3.43;;;3.20;;
4819;SDS011;2424;49.696;6.630;2023-09-08T22:31:06;3.67;;;3.27;;
4819;SDS011;2424;49.696;6.630;2023-09-08T22:36:28;3.23;;;3.00;;
4819;SDS011;2424;49.696;6.630;2023-09-08T22:41:52;3.60;;;3.30;;
4819;SDS011;2424;49.696;6.630;2023-09-08T22:47:14;3.37;;;3.07;;
4819;SDS011;2424;49.696;6.630;2023-09-08T22:52:35;3.17;;;2.80;;
4819;SDS011;2424;49.696;6.630;2023-09-08T22:58:01;3.57;;;3.27;;
4819;SDS011;2424;49.696;6.630;2023-09-08T23:03:23;3.87;;;3.40;;
4819;SDS011;2424;49.696;6.630;2023-09-08T23:08:45;4.03;;;3.60;;
4819;SDS011;2424;49.696;6.630;2023-09-08T23:14:09;3.67;;;3.40;;
4819;SDS011;2424;49.696;6.630;2023-09-08T23:19:31;2.93;;;2.73;;
4819;SDS011;2424;49.696;6.630;2023-09-08T23:24:53;3.60;;;3.30;;
4819;SDS011;2424;49.696;6.630;2023-09-08T23:30:16;3.40;;;3.20;;
4819;SDS011;2424;49.696;6.630;2023-09-08T23:35:40;3.30;;;3.00;;
4819;SDS011;2424;49.696;6.630;2023-09-08T23:41:02;4.17;;;3.57;;
4819;SDS011;2424;49.696;6.630;2023-09-08T23:46:26;4.97;;;4.03;;
4819;SDS011;2424;49.696;6.630;2023-09-08T23:51:48;3.83;;;3.57;;
4819;SDS011;2424;49.696;6.630;2023-09-08T23:57:10;3.93;;;3.53;;
